sensor_id;sensor_type;location;lat;lon;timestamp;P1;durP1;ratioP1;P2;durP2;ratioP2
80694;SDS011;70059;42.702;23.312;2024-02-16T00:02:00;36.20;;;20.55;;
80694;SDS011;70059;42.702;23.312;2024-02-16T00:04:27;36.83;;;20.95;;
80694;SDS011;70059;42.702;23.312;2024-02-16T00:06:52;33.13;;;19.92;;
80694;SDS011;70059;42.702;23.312;2024-02-16T00:09:18;33.10;;;20.02;;
80694;SDS011;70059;42.702;23.312;2024-02-16T00:11:44;35.67;;;19.65;;
80694;SDS011;70059;42.702;23.312;2024-02-16T00:14:10;33.20;;;19.13;;
80694;SDS011;70059;42.702;23.312;2024-02-16T00:16:36;32.30;;;17.83;;
80694;SDS011;70059;42.702;23.312;2024-02-16T00:19:01;34.45;;;18.60;;
80694;SDS011;70059;42.702;23.312;2024-02-16T00:21:27;30.23;;;18.20;;
80694;SDS011;70059;42.702;23.312;2024-02-16T00:23:54;29.70;;;17.08;;
80694;SDS011;70059;42.702;23.312;2024-02-16T00:26:19;26.63;;;16.60;;
80694;SDS011;70059;42.702;23.312;2024-02-16T00:28:46;29.73;;;16.20;;
80694;SDS011;70059;42.702;23.312;2024-02-16T00:31:12;27.55;;;16.20;;
80694;SDS011;70059;42.702;23.312;2024-02-16T00:33:38;29.65;;;15.63;;
80694;SDS011;70059;42.702;23.312;2024-02-16T00:36:04;25.88;;;15.45;;
80694;SDS011;70059;42.702;23.312;2024-02-16T00:38:30;26.10;;;15.45;;
80694;SDS011;70059;42.702;23.312;2024-02-16T00:40:55;24.17;;;14.95;;
80694;SDS011;70059;42.702;23.312;2024-02-16T00:43:21;31.02;;;15.45;;
80694;SDS011;70059;42.702;23.312;2024-02-16T00:45:47;25.27;;;15.65;;
80694;SDS011;70059;42.702;23.312;2024-02-16T00:48:13;29.58;;;16.25;;
80694;SDS011;70059;42.702;23.312;2024-02-16T00:50:39;25.60;;;15.75;;
80694;SDS011;70059;42.702;23.312;2024-02-16T00:53:05;27.83;;;16.08;;
80694;SDS011;70059;42.702;23.312;2024-02-16T00:55:30;28.70;;;15.50;;
80694;SDS011;70059;42.702;23.312;2024-02-16T00:57:56;25.63;;;15.35;;
80694;SDS011;70059;42.702;23.312;2024-02-16T01:00:22;26.67;;;16.40;;
80694;SDS011;70059;42.702;23.312;2024-02-16T01:02:51;26.58;;;16.25;;
80694;SDS011;70059;42.702;23.312;2024-02-16T01:05:17;30.20;;;16.23;;
80694;SDS011;70059;42.702;23.312;2024-02-16T01:07:44;23.75;;;15.68;;
80694;SDS011;70059;42.702;23.312;2024-02-16T01:10:10;30.38;;;17.10;;
80694;SDS011;70059;42.702;23.312;2024-02-16T01:12:37;31.48;;;17.50;;
80694;SDS011;70059;42.702;23.312;2024-02-16T01:15:03;32.70;;;16.80;;
80694;SDS011;70059;42.702;23.312;2024-02-16T01:17:29;29.13;;;16.55;;
80694;SDS011;70059;42.702;23.312;2024-02-16T01:19:57;27.60;;;16.27;;
80694;SDS011;70059;42.702;23.312;2024-02-16T01:22:23;30.10;;;17.05;;
80694;SDS011;70059;42.702;23.312;2024-02-16T01:24:49;27.85;;;17.15;;
80694;SDS011;70059;42.702;23.312;2024-02-16T01:27:15;29.65;;;16.65;;
80694;SDS011;70059;42.702;23.312;2024-02-16T01:29:41;29.13;;;17.52;;
80694;SDS011;70059;42.702;23.312;2024-02-16T01:32:07;31.60;;;18.23;;
80694;SDS011;70059;42.702;23.312;2024-02-16T01:34:33;31.15;;;18.27;;
80694;SDS011;70059;42.702;23.312;2024-02-16T01:36:59;32.97;;;17.67;;
80694;SDS011;70059;42.702;23.312;2024-02-16T01:39:25;29.17;;;17.77;;
80694;SDS011;70059;42.702;23.312;2024-02-16T01:41:50;34.65;;;18.83;;
80694;SDS011;70059;42.702;23.312;2024-02-16T01:44:16;33.10;;;18.30;;
80694;SDS011;70059;42.702;23.312;2024-02-16T01:46:42;32.33;;;17.85;;
80694;SDS011;70059;42.702;23.312;2024-02-16T01:49:08;34.47;;;18.85;;
80694;SDS011;70059;42.702;23.312;2024-02-16T01:51:35;34.28;;;19.65;;
80694;SDS011;70059;42.702;23.312;2024-02-16T01:54:02;33.67;;;19.23;;
80694;SDS011;70059;42.702;23.312;2024-02-16T01:56:28;31.08;;;18.15;;
80694;SDS011;70059;42.702;23.312;2024-02-16T01:58:54;31.75;;;18.55;;
80694;SDS011;70059;42.702;23.312;2024-02-16T02:01:20;34.60;;;19.83;;
80694;SDS011;70059;42.702;23.312;2024-02-16T02:03:45;32.88;;;18.75;;
80694;SDS011;70059;42.702;23.312;2024-02-16T02:06:11;32.13;;;19.13;;
80694;SDS011;70059;42.702;23.312;2024-02-16T02:08:37;32.30;;;19.50;;
80694;SDS011;70059;42.702;23.312;2024-02-16T02:11:03;31.55;;;18.65;;
80694;SDS011;70059;42.702;23.312;2024-02-16T02:13:28;30.73;;;19.13;;
80694;SDS011;70059;42.702;23.312;2024-02-16T02:15:56;34.60;;;18.23;;
80694;SDS011;70059;42.702;23.312;2024-02-16T02:18:24;31.52;;;18.17;;
80694;SDS011;70059;42.702;23.312;2024-02-16T02:20:50;32.13;;;18.15;;
80694;SDS011;70059;42.702;23.312;2024-02-16T02:23:16;29.75;;;17.50;;
80694;SDS011;70059;42.702;23.312;2024-02-16T02:25:41;30.08;;;17.70;;
80694;SDS011;70059;42.702;23.312;2024-02-16T02:28:07;29.33;;;16.65;;
80694;SDS011;70059;42.702;23.312;2024-02-16T02:30:33;30.75;;;17.98;;
80694;SDS011;70059;42.702;23.312;2024-02-16T02:32:59;27.30;;;17.13;;
80694;SDS011;70059;42.702;23.312;2024-02-16T02:35:24;27.55;;;17.15;;
80694;SDS011;70059;42.702;23.312;2024-02-16T02:37:50;28.67;;;16.33;;
80694;SDS011;70059;42.702;23.312;2024-02-16T02:40:16;29.15;;;17.17;;
80694;SDS011;70059;42.702;23.312;2024-02-16T02:42:43;27.45;;;16.88;;
80694;SDS011;70059;42.702;23.312;2024-02-16T02:45:09;28.08;;;16.25;;
80694;SDS011;70059;42.702;23.312;2024-02-16T02:47:35;27.65;;;17.00;;
80694;SDS011;70059;42.702;23.312;2024-02-16T02:50:00;30.67;;;16.23;;
80694;SDS011;70059;42.702;23.312;2024-02-16T02:52:26;28.27;;;17.23;;
80694;SDS011;70059;42.702;23.312;2024-02-16T02:54:52;29.33;;;16.73;;
80694;SDS011;70059;42.702;23.312;2024-02-16T02:57:17;29.58;;;16.90;;
80694;SDS011;70059;42.702;23.312;2024-02-16T02:59:43;31.05;;;17.30;;
80694;SDS011;70059;42.702;23.312;2024-02-16T03:02:10;43.33;;;16.98;;
80694;SDS011;70059;42.702;23.312;2024-02-16T03:04:36;28.70;;;16.23;;
80694;SDS011;70059;42.702;23.312;2024-02-16T03:07:01;32.83;;;17.63;;
80694;SDS011;70059;42.702;23.312;2024-02-16T03:09:27;30.70;;;16.58;;
80694;SDS011;70059;42.702;23.312;2024-02-16T03:11:53;35.50;;;17.08;;
80694;SDS011;70059;42.702;23.312;2024-02-16T03:14:19;26.65;;;16.92;;
80694;SDS011;70059;42.702;23.312;2024-02-16T03:16:44;30.75;;;16.38;;
80694;SDS011;70059;42.702;23.312;2024-02-16T03:19:10;29.92;;;17.25;;
80694;SDS011;70059;42.702;23.312;2024-02-16T03:21:36;30.02;;;17.27;;
80694;SDS011;70059;42.702;23.312;2024-02-16T03:24:02;31.77;;;17.30;;
80694;SDS011;70059;42.702;23.312;2024-02-16T03:26:29;29.20;;;17.58;;
80694;SDS011;70059;42.702;23.312;2024-02-16T03:28:55;32.33;;;18.35;;
80694;SDS011;70059;42.702;23.312;2024-02-16T03:31:21;29.50;;;17.45;;
80694;SDS011;70059;42.702;23.312;2024-02-16T03:33:48;31.33;;;18.35;;
80694;SDS011;70059;42.702;23.312;2024-02-16T03:36:15;34.90;;;19.02;;
80694;SDS011;70059;42.702;23.312;2024-02-16T03:38:42;29.88;;;18.58;;
80694;SDS011;70059;42.702;23.312;2024-02-16T03:41:12;34.35;;;19.40;;
80694;SDS011;70059;42.702;23.312;2024-02-16T03:43:48;33.67;;;19.17;;
80694;SDS011;70059;42.702;23.312;2024-02-16T03:46:15;33.90;;;18.23;;
80694;SDS011;70059;42.702;23.312;2024-02-16T03:48:41;35.38;;;18.88;;
80694;SDS011;70059;42.702;23.312;2024-02-16T03:51:07;30.65;;;17.92;;
80694;SDS011;70059;42.702;23.312;2024-02-16T03:53:33;25.98;;;17.27;;
80694;SDS011;70059;42.702;23.312;2024-02-16T03:55:59;27.92;;;17.08;;
80694;SDS011;70059;42.702;23.312;2024-02-16T03:58:25;33.55;;;17.65;;
80694;SDS011;70059;42.702;23.312;2024-02-16T04:00:53;28.48;;;15.57;;
80694;SDS011;70059;42.702;23.312;2024-02-16T04:03:18;29.02;;;15.93;;
80694;SDS011;70059;42.702;23.312;2024-02-16T04:05:44;28.17;;;15.55;;
80694;SDS011;70059;42.702;23.312;2024-02-16T04:08:10;30.00;;;16.73;;
80694;SDS011;70059;42.702;23.312;2024-02-16T04:10:35;28.20;;;15.70;;
80694;SDS011;70059;42.702;23.312;2024-02-16T04:13:02;33.58;;;16.48;;
80694;SDS011;70059;42.702;23.312;2024-02-16T04:15:28;27.63;;;16.85;;
80694;SDS011;70059;42.702;23.312;2024-02-16T04:17:54;25.23;;;16.73;;
80694;SDS011;70059;42.702;23.312;2024-02-16T04:20:20;28.08;;;17.25;;
80694;SDS011;70059;42.702;23.312;2024-02-16T04:22:45;31.13;;;16.73;;
80694;SDS011;70059;42.702;23.312;2024-02-16T04:25:11;28.50;;;15.80;;
80694;SDS011;70059;42.702;23.312;2024-02-16T04:27:37;26.08;;;15.80;;
80694;SDS011;70059;42.702;23.312;2024-02-16T04:30:03;30.63;;;15.75;;
80694;SDS011;70059;42.702;23.312;2024-02-16T04:32:30;26.83;;;15.38;;
80694;SDS011;70059;42.702;23.312;2024-02-16T04:34:56;25.88;;;16.17;;
80694;SDS011;70059;42.702;23.312;2024-02-16T04:37:22;26.38;;;16.05;;
80694;SDS011;70059;42.702;23.312;2024-02-16T04:39:48;28.98;;;16.42;;
80694;SDS011;70059;42.702;23.312;2024-02-16T04:42:14;32.85;;;16.23;;
80694;SDS011;70059;42.702;23.312;2024-02-16T04:44:40;31.98;;;17.45;;
80694;SDS011;70059;42.702;23.312;2024-02-16T04:47:06;33.28;;;18.23;;
80694;SDS011;70059;42.702;23.312;2024-02-16T04:49:32;32.90;;;17.23;;
80694;SDS011;70059;42.702;23.312;2024-02-16T04:51:58;30.83;;;16.42;;
80694;SDS011;70059;42.702;23.312;2024-02-16T04:54:24;31.05;;;16.38;;
80694;SDS011;70059;42.702;23.312;2024-02-16T04:56:50;30.13;;;16.35;;
80694;SDS011;70059;42.702;23.312;2024-02-16T04:59:16;30.92;;;15.77;;
80694;SDS011;70059;42.702;23.312;2024-02-16T05:01:45;32.35;;;16.85;;
80694;SDS011;70059;42.702;23.312;2024-02-16T05:04:11;27.80;;;16.85;;
80694;SDS011;70059;42.702;23.312;2024-02-16T05:06:41;33.40;;;16.40;;
80694;SDS011;70059;42.702;23.312;2024-02-16T05:09:08;35.58;;;18.27;;
80694;SDS011;70059;42.702;23.312;2024-02-16T05:11:34;30.50;;;16.17;;
80694;SDS011;70059;42.702;23.312;2024-02-16T05:13:59;31.58;;;17.67;;
80694;SDS011;70059;42.702;23.312;2024-02-16T05:16:25;28.50;;;17.25;;
80694;SDS011;70059;42.702;23.312;2024-02-16T05:18:52;36.42;;;20.35;;
80694;SDS011;70059;42.702;23.312;2024-02-16T05:21:18;36.53;;;21.13;;
80694;SDS011;70059;42.702;23.312;2024-02-16T05:23:46;36.63;;;21.65;;
80694;SDS011;70059;42.702;23.312;2024-02-16T05:26:20;36.83;;;20.15;;
80694;SDS011;70059;42.702;23.312;2024-02-16T05:28:57;38.58;;;20.42;;
80694;SDS011;70059;42.702;23.312;2024-02-16T05:31:28;38.90;;;20.70;;
80694;SDS011;70059;42.702;23.312;2024-02-16T05:33:58;31.58;;;18.67;;
80694;SDS011;70059;42.702;23.312;2024-02-16T05:36:27;32.20;;;19.05;;
80694;SDS011;70059;42.702;23.312;2024-02-16T05:39:00;32.88;;;18.33;;
80694;SDS011;70059;42.702;23.312;2024-02-16T05:41:35;40.78;;;20.17;;
80694;SDS011;70059;42.702;23.312;2024-02-16T05:44:03;48.10;;;26.10;;
80694;SDS011;70059;42.702;23.312;2024-02-16T05:46:29;45.90;;;24.73;;
80694;SDS011;70059;42.702;23.312;2024-02-16T05:49:08;43.00;;;22.20;;
80694;SDS011;70059;42.702;23.312;2024-02-16T05:51:48;40.38;;;20.45;;
80694;SDS011;70059;42.702;23.312;2024-02-16T05:57:51;37.92;;;19.75;;
80694;SDS011;70059;42.702;23.312;2024-02-16T06:00:52;34.90;;;19.95;;
80694;SDS011;70059;42.702;23.312;2024-02-16T06:03:44;39.50;;;19.77;;
80694;SDS011;70059;42.702;23.312;2024-02-16T06:09:49;35.58;;;20.88;;
80694;SDS011;70059;42.702;23.312;2024-02-16T06:12:51;38.83;;;18.08;;
80694;SDS011;70059;42.702;23.312;2024-02-16T06:15:34;34.28;;;19.48;;
80694;SDS011;70059;42.702;23.312;2024-02-16T06:28:19;34.58;;;17.15;;
80694;SDS011;70059;42.702;23.312;2024-02-16T06:30:58;33.53;;;16.90;;
80694;SDS011;70059;42.702;23.312;2024-02-16T06:33:26;31.55;;;17.88;;
80694;SDS011;70059;42.702;23.312;2024-02-16T06:39:15;27.25;;;16.67;;
80694;SDS011;70059;42.702;23.312;2024-02-16T06:42:12;29.98;;;17.42;;
80694;SDS011;70059;42.702;23.312;2024-02-16T06:47:57;28.45;;;18.38;;
80694;SDS011;70059;42.702;23.312;2024-02-16T06:54:37;27.75;;;17.45;;
80694;SDS011;70059;42.702;23.312;2024-02-16T07:00:35;29.55;;;17.20;;
80694;SDS011;70059;42.702;23.312;2024-02-16T07:06:18;32.25;;;15.80;;
80694;SDS011;70059;42.702;23.312;2024-02-16T07:09:19;24.83;;;15.02;;
80694;SDS011;70059;42.702;23.312;2024-02-16T07:15:36;26.75;;;16.70;;
80694;SDS011;70059;42.702;23.312;2024-02-16T07:18:34;28.45;;;15.88;;
80694;SDS011;70059;42.702;23.312;2024-02-16T07:21:39;23.13;;;15.93;;
80694;SDS011;70059;42.702;23.312;2024-02-16T07:30:09;24.13;;;14.38;;
80694;SDS011;70059;42.702;23.312;2024-02-16T07:43:23;22.35;;;16.02;;
80694;SDS011;70059;42.702;23.312;2024-02-16T07:45:51;29.33;;;17.48;;
80694;SDS011;70059;42.702;23.312;2024-02-16T07:48:23;26.30;;;16.38;;
80694;SDS011;70059;42.702;23.312;2024-02-16T07:50:54;22.30;;;17.08;;
80694;SDS011;70059;42.702;23.312;2024-02-16T07:53:35;25.70;;;17.58;;
80694;SDS011;70059;42.702;23.312;2024-02-16T07:56:14;28.75;;;18.67;;
80694;SDS011;70059;42.702;23.312;2024-02-16T07:58:49;32.17;;;23.25;;
80694;SDS011;70059;42.702;23.312;2024-02-16T08:01:40;25.90;;;19.08;;
80694;SDS011;70059;42.702;23.312;2024-02-16T08:07:38;40.10;;;22.00;;
80694;SDS011;70059;42.702;23.312;2024-02-16T08:14:06;27.15;;;19.10;;
80694;SDS011;70059;42.702;23.312;2024-02-16T08:16:51;26.27;;;17.42;;
80694;SDS011;70059;42.702;23.312;2024-02-16T08:28:35;27.85;;;19.05;;
80694;SDS011;70059;42.702;23.312;2024-02-16T08:34:53;25.27;;;18.20;;
80694;SDS011;70059;42.702;23.312;2024-02-16T08:44:27;34.20;;;22.15;;
80694;SDS011;70059;42.702;23.312;2024-02-16T08:54:12;29.83;;;21.13;;
80694;SDS011;70059;42.702;23.312;2024-02-16T09:00:01;31.55;;;22.58;;
80694;SDS011;70059;42.702;23.312;2024-02-16T09:02:44;28.98;;;21.27;;
80694;SDS011;70059;42.702;23.312;2024-02-16T09:05:30;28.85;;;18.55;;
80694;SDS011;70059;42.702;23.312;2024-02-16T09:08:05;26.33;;;18.27;;
80694;SDS011;70059;42.702;23.312;2024-02-16T09:11:00;23.15;;;17.85;;
80694;SDS011;70059;42.702;23.312;2024-02-16T09:13:36;23.88;;;17.08;;
80694;SDS011;70059;42.702;23.312;2024-02-16T09:16:04;17.83;;;15.75;;
80694;SDS011;70059;42.702;23.312;2024-02-16T09:18:30;16.60;;;14.32;;
80694;SDS011;70059;42.702;23.312;2024-02-16T09:20:56;10.02;;;9.18;;
80694;SDS011;70059;42.702;23.312;2024-02-16T09:23:22;22.50;;;17.13;;
80694;SDS011;70059;42.702;23.312;2024-02-16T09:25:59;20.50;;;14.35;;
80694;SDS011;70059;42.702;23.312;2024-02-16T09:28:25;16.98;;;13.68;;
80694;SDS011;70059;42.702;23.312;2024-02-16T09:31:18;14.80;;;13.30;;
80694;SDS011;70059;42.702;23.312;2024-02-16T09:33:45;14.45;;;12.80;;
80694;SDS011;70059;42.702;23.312;2024-02-16T09:36:11;13.27;;;12.00;;
80694;SDS011;70059;42.702;23.312;2024-02-16T09:38:37;14.70;;;13.18;;
80694;SDS011;70059;42.702;23.312;2024-02-16T09:41:03;14.02;;;12.52;;
80694;SDS011;70059;42.702;23.312;2024-02-16T09:43:41;16.77;;;13.82;;
80694;SDS011;70059;42.702;23.312;2024-02-16T09:46:33;18.58;;;13.35;;
80694;SDS011;70059;42.702;23.312;2024-02-16T09:52:57;12.35;;;11.20;;
80694;SDS011;70059;42.702;23.312;2024-02-16T10:01:59;13.23;;;11.98;;
80694;SDS011;70059;42.702;23.312;2024-02-16T10:04:48;15.40;;;11.32;;
80694;SDS011;70059;42.702;23.312;2024-02-16T10:20:44;12.88;;;11.77;;
80694;SDS011;70059;42.702;23.312;2024-02-16T10:23:10;15.13;;;13.70;;
80694;SDS011;70059;42.702;23.312;2024-02-16T10:25:37;16.02;;;14.45;;
80694;SDS011;70059;42.702;23.312;2024-02-16T10:28:08;16.02;;;14.32;;
80694;SDS011;70059;42.702;23.312;2024-02-16T10:33:03;14.77;;;13.38;;
80694;SDS011;70059;42.702;23.312;2024-02-16T10:35:30;15.20;;;13.80;;
80694;SDS011;70059;42.702;23.312;2024-02-16T10:37:58;13.45;;;12.32;;
80694;SDS011;70059;42.702;23.312;2024-02-16T10:40:33;12.55;;;11.35;;
80694;SDS011;70059;42.702;23.312;2024-02-16T10:43:10;13.20;;;12.18;;
80694;SDS011;70059;42.702;23.312;2024-02-16T10:45:38;12.48;;;11.43;;
80694;SDS011;70059;42.702;23.312;2024-02-16T10:48:05;13.20;;;11.98;;
80694;SDS011;70059;42.702;23.312;2024-02-16T10:50:33;14.68;;;13.23;;
80694;SDS011;70059;42.702;23.312;2024-02-16T10:53:09;12.18;;;11.15;;
80694;SDS011;70059;42.702;23.312;2024-02-16T10:55:37;12.73;;;11.68;;
80694;SDS011;70059;42.702;23.312;2024-02-16T10:58:02;12.93;;;11.73;;
80694;SDS011;70059;42.702;23.312;2024-02-16T11:00:29;12.73;;;11.77;;
80694;SDS011;70059;42.702;23.312;2024-02-16T11:02:56;18.52;;;13.85;;
80694;SDS011;70059;42.702;23.312;2024-02-16T11:05:34;13.60;;;10.73;;
80694;SDS011;70059;42.702;23.312;2024-02-16T11:08:23;12.70;;;11.55;;
80694;SDS011;70059;42.702;23.312;2024-02-16T11:11:00;12.10;;;10.77;;
80694;SDS011;70059;42.702;23.312;2024-02-16T11:13:31;13.02;;;11.55;;
80694;SDS011;70059;42.702;23.312;2024-02-16T11:18:57;12.35;;;11.10;;
80694;SDS011;70059;42.702;23.312;2024-02-16T11:21:28;12.73;;;11.52;;
80694;SDS011;70059;42.702;23.312;2024-02-16T11:23:54;11.55;;;10.50;;
80694;SDS011;70059;42.702;23.312;2024-02-16T11:26:32;10.90;;;9.98;;
80694;SDS011;70059;42.702;23.312;2024-02-16T11:29:08;12.05;;;10.77;;
80694;SDS011;70059;42.702;23.312;2024-02-16T11:31:35;14.52;;;10.55;;
80694;SDS011;70059;42.702;23.312;2024-02-16T11:34:01;9.25;;;8.32;;
80694;SDS011;70059;42.702;23.312;2024-02-16T11:36:26;11.27;;;10.25;;
80694;SDS011;70059;42.702;23.312;2024-02-16T11:38:52;11.48;;;10.40;;
80694;SDS011;70059;42.702;23.312;2024-02-16T11:41:18;12.90;;;11.80;;
80694;SDS011;70059;42.702;23.312;2024-02-16T11:43:46;10.65;;;9.82;;
80694;SDS011;70059;42.702;23.312;2024-02-16T11:46:13;14.23;;;10.27;;
80694;SDS011;70059;42.702;23.312;2024-02-16T11:48:40;12.13;;;10.23;;
80694;SDS011;70059;42.702;23.312;2024-02-16T11:51:06;11.10;;;9.93;;
80694;SDS011;70059;42.702;23.312;2024-02-16T11:53:32;11.63;;;10.48;;
80694;SDS011;70059;42.702;23.312;2024-02-16T11:55:58;11.93;;;10.82;;
80694;SDS011;70059;42.702;23.312;2024-02-16T11:58:25;11.10;;;9.93;;
80694;SDS011;70059;42.702;23.312;2024-02-16T12:00:51;11.30;;;10.15;;
80694;SDS011;70059;42.702;23.312;2024-02-16T12:03:20;12.60;;;11.50;;
80694;SDS011;70059;42.702;23.312;2024-02-16T12:08:16;11.40;;;10.30;;
80694;SDS011;70059;42.702;23.312;2024-02-16T12:10:42;12.30;;;11.00;;
80694;SDS011;70059;42.702;23.312;2024-02-16T12:13:09;18.20;;;10.80;;
80694;SDS011;70059;42.702;23.312;2024-02-16T12:15:37;11.00;;;10.00;;
80694;SDS011;70059;42.702;23.312;2024-02-16T12:18:03;12.63;;;10.05;;
80694;SDS011;70059;42.702;23.312;2024-02-16T12:20:31;13.88;;;11.50;;
80694;SDS011;70059;42.702;23.312;2024-02-16T12:22:57;11.95;;;10.75;;
80694;SDS011;70059;42.702;23.312;2024-02-16T12:25:24;11.77;;;10.68;;
80694;SDS011;70059;42.702;23.312;2024-02-16T12:27:51;11.52;;;10.43;;
80694;SDS011;70059;42.702;23.312;2024-02-16T12:30:17;12.35;;;11.10;;
80694;SDS011;70059;42.702;23.312;2024-02-16T12:32:44;12.93;;;10.63;;
80694;SDS011;70059;42.702;23.312;2024-02-16T12:35:10;11.73;;;10.63;;
80694;SDS011;70059;42.702;23.312;2024-02-16T12:37:35;13.68;;;11.48;;
80694;SDS011;70059;42.702;23.312;2024-02-16T12:40:02;11.63;;;10.43;;
80694;SDS011;70059;42.702;23.312;2024-02-16T12:42:28;11.95;;;10.00;;
80694;SDS011;70059;42.702;23.312;2024-02-16T12:45:01;11.27;;;9.82;;
80694;SDS011;70059;42.702;23.312;2024-02-16T12:47:26;10.25;;;9.20;;
80694;SDS011;70059;42.702;23.312;2024-02-16T12:49:52;10.65;;;9.65;;
80694;SDS011;70059;42.702;23.312;2024-02-16T12:52:21;15.63;;;9.40;;
80694;SDS011;70059;42.702;23.312;2024-02-16T12:54:47;10.48;;;9.55;;
80694;SDS011;70059;42.702;23.312;2024-02-16T12:57:13;11.75;;;10.02;;
80694;SDS011;70059;42.702;23.312;2024-02-16T12:59:39;11.55;;;10.55;;
80694;SDS011;70059;42.702;23.312;2024-02-16T13:02:12;12.35;;;10.80;;
80694;SDS011;70059;42.702;23.312;2024-02-16T13:04:37;11.85;;;10.70;;
80694;SDS011;70059;42.702;23.312;2024-02-16T13:07:03;11.27;;;10.13;;
80694;SDS011;70059;42.702;23.312;2024-02-16T13:09:29;10.45;;;9.52;;
80694;SDS011;70059;42.702;23.312;2024-02-16T13:11:54;12.13;;;9.65;;
80694;SDS011;70059;42.702;23.312;2024-02-16T13:14:21;9.68;;;8.68;;
80694;SDS011;70059;42.702;23.312;2024-02-16T13:16:46;9.68;;;8.60;;
80694;SDS011;70059;42.702;23.312;2024-02-16T13:19:12;10.90;;;9.80;;
80694;SDS011;70059;42.702;23.312;2024-02-16T13:21:38;12.00;;;10.38;;
80694;SDS011;70059;42.702;23.312;2024-02-16T13:24:04;10.52;;;9.48;;
80694;SDS011;70059;42.702;23.312;2024-02-16T13:26:31;12.13;;;10.80;;
80694;SDS011;70059;42.702;23.312;2024-02-16T13:28:57;19.42;;;11.52;;
80694;SDS011;70059;42.702;23.312;2024-02-16T13:31:23;10.52;;;9.52;;
80694;SDS011;70059;42.702;23.312;2024-02-16T13:33:53;11.43;;;10.23;;
80694;SDS011;70059;42.702;23.312;2024-02-16T13:36:19;12.63;;;11.43;;
80694;SDS011;70059;42.702;23.312;2024-02-16T13:38:45;11.57;;;10.38;;
80694;SDS011;70059;42.702;23.312;2024-02-16T13:41:10;12.18;;;10.98;;
80694;SDS011;70059;42.702;23.312;2024-02-16T13:43:36;13.50;;;10.55;;
80694;SDS011;70059;42.702;23.312;2024-02-16T13:46:02;10.80;;;9.80;;
80694;SDS011;70059;42.702;23.312;2024-02-16T13:48:28;10.48;;;9.32;;
80694;SDS011;70059;42.702;23.312;2024-02-16T13:51:02;10.15;;;9.25;;
80694;SDS011;70059;42.702;23.312;2024-02-16T13:53:27;10.85;;;9.82;;
80694;SDS011;70059;42.702;23.312;2024-02-16T13:55:53;11.93;;;10.82;;
80694;SDS011;70059;42.702;23.312;2024-02-16T13:58:20;10.80;;;9.70;;
80694;SDS011;70059;42.702;23.312;2024-02-16T14:00:46;10.75;;;9.75;;
80694;SDS011;70059;42.702;23.312;2024-02-16T14:03:14;12.07;;;10.95;;
80694;SDS011;70059;42.702;23.312;2024-02-16T14:05:40;11.20;;;10.02;;
80694;SDS011;70059;42.702;23.312;2024-02-16T14:08:09;13.00;;;9.80;;
80694;SDS011;70059;42.702;23.312;2024-02-16T14:10:36;18.77;;;9.50;;
80694;SDS011;70059;42.702;23.312;2024-02-16T14:13:02;9.20;;;8.40;;
80694;SDS011;70059;42.702;23.312;2024-02-16T14:15:27;11.57;;;8.70;;
80694;SDS011;70059;42.702;23.312;2024-02-16T14:17:53;11.32;;;9.93;;
80694;SDS011;70059;42.702;23.312;2024-02-16T14:20:19;18.23;;;13.98;;
80694;SDS011;70059;42.702;23.312;2024-02-16T14:22:46;15.25;;;9.15;;
80694;SDS011;70059;42.702;23.312;2024-02-16T14:25:13;12.98;;;11.57;;
80694;SDS011;70059;42.702;23.312;2024-02-16T14:27:46;14.00;;;10.25;;
80694;SDS011;70059;42.702;23.312;2024-02-16T14:30:12;9.48;;;8.65;;
80694;SDS011;70059;42.702;23.312;2024-02-16T14:32:38;12.02;;;10.23;;
80694;SDS011;70059;42.702;23.312;2024-02-16T14:35:04;10.70;;;9.63;;
80694;SDS011;70059;42.702;23.312;2024-02-16T14:37:32;10.00;;;8.98;;
80694;SDS011;70059;42.702;23.312;2024-02-16T14:39:58;11.27;;;9.23;;
80694;SDS011;70059;42.702;23.312;2024-02-16T14:42:25;9.90;;;8.90;;
80694;SDS011;70059;42.702;23.312;2024-02-16T14:44:51;10.15;;;9.02;;
80694;SDS011;70059;42.702;23.312;2024-02-16T14:47:17;9.18;;;8.18;;
80694;SDS011;70059;42.702;23.312;2024-02-16T14:49:43;21.02;;;10.65;;
80694;SDS011;70059;42.702;23.312;2024-02-16T14:52:09;12.45;;;9.35;;
80694;SDS011;70059;42.702;23.312;2024-02-16T14:54:36;8.70;;;7.90;;
80694;SDS011;70059;42.702;23.312;2024-02-16T14:57:01;10.45;;;9.45;;
80694;SDS011;70059;42.702;23.312;2024-02-16T14:59:27;11.50;;;10.18;;
80694;SDS011;70059;42.702;23.312;2024-02-16T15:01:55;11.57;;;10.07;;
80694;SDS011;70059;42.702;23.312;2024-02-16T15:04:22;14.10;;;9.07;;
80694;SDS011;70059;42.702;23.312;2024-02-16T15:06:47;16.73;;;10.73;;
80694;SDS011;70059;42.702;23.312;2024-02-16T15:09:13;13.80;;;9.98;;
80694;SDS011;70059;42.702;23.312;2024-02-16T15:11:39;14.55;;;10.57;;
80694;SDS011;70059;42.702;23.312;2024-02-16T15:14:04;12.48;;;9.93;;
80694;SDS011;70059;42.702;23.312;2024-02-16T15:16:37;12.45;;;9.50;;
80694;SDS011;70059;42.702;23.312;2024-02-16T15:19:02;13.60;;;9.35;;
80694;SDS011;70059;42.702;23.312;2024-02-16T15:21:29;15.07;;;9.60;;
80694;SDS011;70059;42.702;23.312;2024-02-16T15:24:02;11.93;;;9.40;;
80694;SDS011;70059;42.702;23.312;2024-02-16T15:26:28;14.63;;;10.38;;
80694;SDS011;70059;42.702;23.312;2024-02-16T15:28:53;12.60;;;9.38;;
80694;SDS011;70059;42.702;23.312;2024-02-16T15:31:19;18.60;;;10.25;;
80694;SDS011;70059;42.702;23.312;2024-02-16T15:33:45;12.98;;;9.13;;
80694;SDS011;70059;42.702;23.312;2024-02-16T15:36:11;13.98;;;9.57;;
80694;SDS011;70059;42.702;23.312;2024-02-16T15:38:36;14.20;;;10.18;;
80694;SDS011;70059;42.702;23.312;2024-02-16T15:41:02;11.07;;;9.32;;
80694;SDS011;70059;42.702;23.312;2024-02-16T15:43:28;13.70;;;9.57;;
80694;SDS011;70059;42.702;23.312;2024-02-16T15:45:54;11.18;;;9.23;;
80694;SDS011;70059;42.702;23.312;2024-02-16T15:48:20;14.48;;;10.00;;
80694;SDS011;70059;42.702;23.312;2024-02-16T15:50:45;15.32;;;9.07;;
80694;SDS011;70059;42.702;23.312;2024-02-16T15:53:11;21.65;;;10.18;;
80694;SDS011;70059;42.702;23.312;2024-02-16T15:55:36;12.88;;;9.30;;
80694;SDS011;70059;42.702;23.312;2024-02-16T15:58:02;17.55;;;10.70;;
80694;SDS011;70059;42.702;23.312;2024-02-16T16:00:28;15.85;;;10.05;;
80694;SDS011;70059;42.702;23.312;2024-02-16T16:02:54;16.55;;;11.52;;
80694;SDS011;70059;42.702;23.312;2024-02-16T16:05:19;19.83;;;10.23;;
80694;SDS011;70059;42.702;23.312;2024-02-16T16:07:45;15.13;;;11.50;;
80694;SDS011;70059;42.702;23.312;2024-02-16T16:10:11;16.65;;;10.13;;
80694;SDS011;70059;42.702;23.312;2024-02-16T16:12:37;22.55;;;11.45;;
80694;SDS011;70059;42.702;23.312;2024-02-16T16:15:05;15.02;;;10.10;;
80694;SDS011;70059;42.702;23.312;2024-02-16T16:17:31;14.93;;;11.05;;
80694;SDS011;70059;42.702;23.312;2024-02-16T16:19:57;19.40;;;12.65;;
80694;SDS011;70059;42.702;23.312;2024-02-16T16:22:23;14.82;;;10.80;;
80694;SDS011;70059;42.702;23.312;2024-02-16T16:24:49;21.70;;;13.57;;